Airfield :
LOGIN :

Register | Disclaimer

   EN    FR    IT 

 










Legend :    VFR   Marginal VFR   IFR   Intensive IFR   Very Intensive IFR
Visi :
Ceiling :
>= 8 km
>= 3000ft
5 to 8 km
1000 to 3000 ft
1500m to 5 km
500 to 1000 ft
800 to 1500m
200 to 500 ft
< 800m
< 200 ft
Symbols :   Thunderstorms  Fog  Heavy snow  Heavy precipitations  Wind > 20 kt
SIGMETs :     Misc.  Thunderstorms  Icing  Turbulence  Mountain Waves  Volcanic Ashes







- Airport Elevation : 84 ft
- Download approach charts


LFBC - Cazaux

CURRENT METAR :
  • 242030Z AUTO 33009KT CAVOK 14/11 Q1018 NOSIG

EXPIRED METARs :
  • 242000Z AUTO 32007KT CAVOK 15/11 Q1017 NOSIG
  • 241930Z AUTO 33008KT CAVOK 15/11 Q1017 NOSIG
  • 241900Z AUTO 33008KT CAVOK 16/12 Q1016 NOSIG
  • 241830Z AUTO 33008KT CAVOK 18/12 Q1016 NOSIG
  • 241800Z AUTO 34008KT CAVOK 19/12 Q1016 NOSIG

TAF TAF LFBC
Valid from the 24 at 21:00 until the 25 at 21:00 UTC


242000Z 2421/2521 34005KT CAVOK
TEMPO 2423/2501 BKN014
TEMPO 2515/2518 BKN012
No reported NOTAMs for that airfield.



MET'MAP, your aeronautical weather chart ! - Copyright ORBIFLY December 2007 - Disclaimer

ORBIFLY MET'MAP TEAM :

Programming & Development : Alexandra Zaïnal
Concept & Development : Baudouin d'Aumeries
Co-Development & Prog : Marc-Olivier Méhu
Technical & hardware support : Manuel Goepfert

Contact : metmap@orbifly.com




SOURCES & CREDITS :

   NOAA